createdAt,value
2022-08-30T00:01:07.369Z,98853.03
2022-08-30T00:02:56.417Z,98863.84
2022-08-30T00:04:31.740Z,98851.06
2022-08-30T00:06:14.163Z,98854.59
2022-08-30T00:07:49.644Z,98852.81
2022-08-30T00:10:57.632Z,98855.56
2022-08-30T00:14:05.408Z,98846.28
2022-08-30T00:15:44.191Z,98853.66
2022-08-30T00:17:05.308Z,98851.16
2022-08-30T00:18:31.527Z,98852.97
2022-08-30T00:19:47.914Z,98856.53
2022-08-30T00:21:14.083Z,98862.69
2022-08-30T00:22:20.075Z,98849.66
2022-08-30T00:23:29.877Z,98848.78
2022-08-30T00:24:46.222Z,98868.63
2022-08-30T00:25:52.628Z,98858.19
2022-08-30T00:26:57.142Z,98867.66
2022-08-30T00:28:03.258Z,98862.31
2022-08-30T00:29:18.107Z,98867.41
2022-08-30T00:30:49.763Z,98863.16
2022-08-30T00:31:56.019Z,98859.81
2022-08-30T00:33:07.161Z,98856.41
2022-08-30T00:34:59.916Z,98862.44
2022-08-30T00:36:11.668Z,98873.84
2022-08-30T00:37:21.561Z,98863.63
2022-08-30T00:38:26.153Z,98864.59
2022-08-30T00:39:31.706Z,98862.94
2022-08-30T00:40:38.555Z,98859.50
2022-08-30T00:41:45.343Z,98867.19
2022-08-30T00:42:54.544Z,98860.19
2022-08-30T00:44:02.790Z,98863.63
2022-08-30T00:45:13.805Z,98865.31
2022-08-30T00:46:24.815Z,98868.75
2022-08-30T00:48:16.775Z,98852.38
2022-08-30T00:49:26.982Z,98863.75
2022-08-30T00:50:47.009Z,98861.28
2022-08-30T00:52:57.145Z,98865.09
2022-08-30T00:54:34.391Z,98863.56
2022-08-30T00:56:23.993Z,98863.78
2022-08-30T00:59:23.803Z,98862.38
2022-08-30T01:09:16.137Z,98851.38
2022-08-30T01:10:24.967Z,98846.50
2022-08-30T01:13:09.270Z,98859.69
2022-08-30T01:14:17.738Z,98865.72
2022-08-30T01:15:27.134Z,98858.84
2022-08-30T01:17:02.837Z,98856.38
2022-08-30T01:18:13.249Z,98859.91
2022-08-30T01:22:46.585Z,98864.44
2022-08-30T01:26:51.569Z,98858.91
2022-08-30T01:29:14.324Z,98855.47
2022-08-30T01:44:22.567Z,98853.53
2022-08-30T01:46:00.351Z,98860.66
2022-08-30T01:50:12.830Z,98850.22
2022-08-30T01:50:42.172Z,98852.13
2022-08-30T01:51:50.453Z,98845.84
2022-08-30T01:53:13.263Z,98846.66
2022-08-30T01:55:28.308Z,98851.78
2022-08-30T01:57:07.724Z,98854.75
2022-08-30T01:58:40.600Z,98859.00
2022-08-30T02:00:05.330Z,98847.63
2022-08-30T02:03:08.033Z,98854.00
2022-08-30T02:04:15.023Z,98857.56
2022-08-30T02:05:23.998Z,98855.78
2022-08-30T02:06:39.718Z,98847.84
2022-08-30T02:08:01.787Z,98859.00
2022-08-30T02:09:07.493Z,98853.78
2022-08-30T02:10:43.285Z,98856.28
2022-08-30T02:12:18.903Z,98852.34
2022-08-30T02:13:58.740Z,98856.25
2022-08-30T02:15:14.145Z,98858.25
2022-08-30T02:16:33.103Z,98859.91
2022-08-30T02:17:48.339Z,98851.19
2022-08-30T02:18:57.808Z,98852.69
2022-08-30T02:20:03.446Z,98851.75
2022-08-30T02:21:31.865Z,98849.88
2022-08-30T02:23:06.221Z,98848.22
2022-08-30T02:24:20.657Z,98849.97
2022-08-30T02:25:30.619Z,98849.06
2022-08-30T02:26:37.235Z,98851.66
2022-08-30T02:27:44.397Z,98843.00
2022-08-30T02:29:07.454Z,98848.31
2022-08-30T02:30:18.477Z,98853.78
2022-08-30T02:31:27.077Z,98845.97
2022-08-30T02:32:32.595Z,98845.00
2022-08-30T02:33:36.976Z,98840.50
2022-08-30T02:34:49.348Z,98845.63
2022-08-30T02:35:59.237Z,98844.66
2022-08-30T02:40:01.093Z,98840.28
2022-08-30T02:41:11.780Z,98837.81
2022-08-30T02:44:39.916Z,98839.81
2022-08-30T02:50:01.882Z,98846.06
2022-08-30T02:51:14.411Z,98848.91
2022-08-30T02:52:27.503Z,98851.50
2022-08-30T02:53:32.147Z,98847.13
2022-08-30T02:54:37.829Z,98845.22
2022-08-30T02:55:52.344Z,98851.16
2022-08-30T02:56:58.045Z,98850.09
2022-08-30T02:58:03.402Z,98853.31
2022-08-30T02:59:19.466Z,98853.78
2022-08-30T03:00:33.950Z,98854.25
2022-08-30T03:01:39.734Z,98850.47
2022-08-30T03:02:47.414Z,98852.72
2022-08-30T03:03:51.453Z,98841.25
2022-08-30T03:04:59.724Z,98843.72
2022-08-30T03:06:07.176Z,98843.59
2022-08-30T03:07:12.914Z,98850.50
2022-08-30T03:08:17.342Z,98846.94
2022-08-30T03:09:22.589Z,98846.94
2022-08-30T03:10:27.997Z,98852.13
2022-08-30T03:11:38.720Z,98853.78
2022-08-30T03:12:42.915Z,98852.13
2022-08-30T03:13:47.985Z,98849.66
2022-08-30T03:14:53.046Z,98856.63
2022-08-30T03:15:57.030Z,98852.25
2022-08-30T03:17:03.028Z,98855.69
2022-08-30T03:18:07.394Z,98859.97
2022-08-30T03:19:12.397Z,98859.00
2022-08-30T03:20:15.891Z,98862.31
2022-08-30T03:21:22.043Z,98866.00
2022-08-30T03:22:25.677Z,98856.63
2022-08-30T03:23:30.597Z,98858.53
2022-08-30T03:24:34.211Z,98855.22
2022-08-30T03:25:39.685Z,98859.69
2022-08-30T03:26:46.780Z,98857.34
2022-08-30T03:27:52.178Z,98853.91
2022-08-30T03:28:55.666Z,98858.28
2022-08-30T03:30:00.555Z,98850.47
2022-08-30T03:31:04.547Z,98856.53
2022-08-30T03:32:13.262Z,98850.59
2022-08-30T03:33:18.133Z,98863.00
2022-08-30T03:34:24.576Z,98852.09
2022-08-30T03:35:28.539Z,98855.91
2022-08-30T03:36:38.529Z,98854.34
2022-08-30T03:37:42.213Z,98859.69
2022-08-30T03:38:55.586Z,98858.03
2022-08-30T03:40:10.071Z,98855.44
2022-08-30T03:41:15.637Z,98857.41
2022-08-30T03:42:19.580Z,98856.72
2022-08-30T03:43:28.657Z,98859.53
2022-08-30T03:44:42.719Z,98860.72
2022-08-30T03:45:46.857Z,98857.53
2022-08-30T03:46:59.682Z,98864.59
2022-08-30T03:48:05.493Z,98856.91
2022-08-30T03:49:10.146Z,98865.69
2022-08-30T03:50:14.968Z,98858.69
2022-08-30T03:51:26.174Z,98866.50
2022-08-30T03:52:36.399Z,98865.56
2022-08-30T03:53:40.227Z,98866.50
2022-08-30T03:54:47.922Z,98873.50
2022-08-30T03:55:51.903Z,98869.31
2022-08-30T03:56:57.837Z,98870.41
2022-08-30T03:58:01.787Z,98872.88
2022-08-30T03:59:06.515Z,98868.50
2022-08-30T04:00:11.598Z,98871.81
2022-08-30T04:01:16.083Z,98866.50
2022-08-30T04:02:19.484Z,98867.34
2022-08-30T04:03:28.248Z,98869.19
2022-08-30T04:04:32.658Z,98873.69
2022-08-30T04:05:37.629Z,98870.41
2022-08-30T04:06:41.536Z,98875.59
2022-08-30T04:07:46.217Z,98872.88
2022-08-30T04:08:51.530Z,98873.59
2022-08-30T04:09:55.180Z,98875.28
2022-08-30T04:11:01.428Z,98877.75
2022-08-30T04:12:05.779Z,98874.31
2022-08-30T04:13:10.607Z,98871.72
2022-08-30T04:14:14.250Z,98871.59
2022-08-30T04:15:19.678Z,98874.91
2022-08-30T04:16:23.542Z,98868.66
2022-08-30T04:17:28.812Z,98870.31
2022-08-30T04:18:35.139Z,98870.09
2022-08-30T04:19:40.086Z,98878.59
2022-08-30T04:20:43.932Z,98874.22
2022-08-30T04:21:48.807Z,98875.78
2022-08-30T04:23:17.686Z,98885.84
2022-08-30T04:24:26.135Z,98885.72
2022-08-30T04:25:29.806Z,98884.66
2022-08-30T04:26:35.567Z,98887.03
2022-08-30T04:27:39.289Z,98887.66
2022-08-30T04:28:43.998Z,98882.19
2022-08-30T04:29:48.148Z,98881.34
2022-08-30T04:30:52.697Z,98877.81
2022-08-30T04:31:56.436Z,98880.31
2022-08-30T04:33:01.817Z,98885.28
2022-08-30T04:34:07.504Z,98886.00
2022-08-30T04:35:12.757Z,98881.50
2022-08-30T04:36:16.697Z,98884.81
2022-08-30T04:37:21.487Z,98883.75
2022-08-30T04:38:29.884Z,98885.19
2022-08-30T04:39:35.409Z,98880.56
2022-08-30T04:40:39.331Z,98885.53
2022-08-30T04:41:47.914Z,98889.44
2022-08-30T04:43:02.077Z,98886.72
2022-08-30T04:44:14.248Z,98888.28
2022-08-30T04:45:27.860Z,98891.59
2022-08-30T04:46:32.266Z,98893.97
2022-08-30T04:47:43.075Z,98896.44
2022-08-30T04:49:11.005Z,98901.19
2022-08-30T04:50:19.921Z,98896.78
2022-08-30T04:51:29.338Z,98900.00
2022-08-30T04:52:33.618Z,98905.69
2022-08-30T04:53:41.962Z,98907.94
2022-08-30T04:54:46.628Z,98903.19
2022-08-30T04:55:52.429Z,98909.84
2022-08-30T04:56:56.486Z,98901.53
2022-08-30T04:58:01.551Z,98910.66
2022-08-30T04:59:08.496Z,98899.72
2022-08-30T05:00:15.118Z,98907.06
2022-08-30T05:01:21.855Z,98900.44
2022-08-30T05:02:29.110Z,98906.81
2022-08-30T05:03:33.443Z,98911.47
2022-08-30T05:05:00.325Z,98907.38
2022-08-30T05:06:03.883Z,98905.94
2022-08-30T05:07:08.927Z,98906.28
2022-08-30T05:08:14.777Z,98908.13
2022-08-30T05:09:21.888Z,98910.13
2022-08-30T05:10:27.791Z,98912.09
2022-08-30T05:11:33.150Z,98908.75
2022-08-30T05:12:37.648Z,98913.22
2022-08-30T05:13:42.659Z,98914.25
2022-08-30T05:14:53.354Z,98915.00
2022-08-30T05:15:59.524Z,98914.34
2022-08-30T05:17:34.558Z,98907.69
2022-08-30T05:18:39.808Z,98914.75
2022-08-30T05:19:45.609Z,98912.28
2022-08-30T05:21:13.598Z,98912.50
2022-08-30T05:22:21.145Z,98917.47
2022-08-30T05:23:26.783Z,98917.66
2022-08-30T05:24:32.467Z,98912.47
2022-08-30T05:25:44.179Z,98913.91
2022-08-30T05:26:51.221Z,98917.13
2022-08-30T05:27:56.490Z,98913.84
2022-08-30T05:29:01.143Z,98911.94
2022-08-30T05:30:10.460Z,98911.53
2022-08-30T05:31:17.452Z,98910.00
2022-08-30T05:32:22.446Z,98908.59
2022-08-30T05:33:27.786Z,98910.38
2022-08-30T05:34:35.189Z,98915.69
2022-08-30T05:35:41.186Z,98913.06
2022-08-30T05:36:46.326Z,98913.91
2022-08-30T05:37:51.357Z,98919.06
2022-08-30T05:38:57.985Z,98919.34
2022-08-30T05:40:02.475Z,98914.88
2022-08-30T05:41:10.790Z,98925.63
2022-08-30T05:42:16.873Z,98916.97
2022-08-30T05:43:21.756Z,98911.94
2022-08-30T05:44:30.372Z,98913.97
2022-08-30T05:45:34.980Z,98913.38
2022-08-30T05:46:43.417Z,98912.59
2022-08-30T05:47:48.163Z,98915.28
2022-08-30T05:48:54.905Z,98913.03
2022-08-30T05:49:58.554Z,98921.81
2022-08-30T05:51:06.708Z,98920.03
2022-08-30T05:52:10.490Z,98918.28
2022-08-30T05:53:17.384Z,98927.06
2022-08-30T05:54:24.834Z,98924.84
2022-08-30T05:55:29.725Z,98920.19
2022-08-30T05:56:35.510Z,98915.84
2022-08-30T05:57:42.728Z,98916.91
2022-08-30T05:58:46.279Z,98916.09
2022-08-30T06:02:22.637Z,98915.19
2022-08-30T06:03:27.141Z,98912.06
2022-08-30T06:04:32.390Z,98921.13
2022-08-30T06:07:10.536Z,98926.84
2022-08-30T06:08:18.194Z,98919.56
2022-08-30T06:09:22.727Z,98923.50
2022-08-30T06:10:33.722Z,98919.38
2022-08-30T06:11:37.369Z,98919.78
2022-08-30T06:12:49.553Z,98926.31
2022-08-30T06:13:54.663Z,98923.69
2022-08-30T06:14:59.538Z,98924.72
2022-08-30T06:16:03.401Z,98928.53
2022-08-30T06:17:08.205Z,98924.59
2022-08-30T06:18:12.260Z,98925.28
2022-08-30T06:19:17.698Z,98927.94
2022-08-30T06:20:21.013Z,98930.34
2022-08-30T06:21:26.668Z,98929.81
2022-08-30T06:22:32.653Z,98925.25
2022-08-30T06:23:52.377Z,98922.38
2022-08-30T06:24:58.007Z,98931.84
2022-08-30T06:26:05.847Z,98929.31
2022-08-30T06:27:11.747Z,98932.56
2022-08-30T06:28:15.513Z,98926.88
2022-08-30T06:29:21.532Z,98930.16
2022-08-30T06:30:26.073Z,98925.47
2022-08-30T06:31:29.399Z,98935.00
2022-08-30T06:32:33.784Z,98929.38
2022-08-30T06:33:37.816Z,98927.03
2022-08-30T06:34:42.215Z,98934.47
2022-08-30T06:35:58.575Z,98924.94
2022-08-30T06:37:03.920Z,98931.38
2022-08-30T06:38:08.522Z,98932.25
2022-08-30T06:39:12.917Z,98935.97
2022-08-30T06:40:18.580Z,98934.59
2022-08-30T06:41:24.308Z,98934.25
2022-08-30T06:42:32.401Z,98942.31
2022-08-30T06:43:35.969Z,98937.53
2022-08-30T06:44:40.772Z,98931.44
2022-08-30T06:45:51.365Z,98928.22
2022-08-30T06:46:56.049Z,98937.69
2022-08-30T06:47:59.496Z,98934.09
2022-08-30T06:49:04.851Z,98936.56
2022-08-30T06:50:11.948Z,98943.56
2022-08-30T06:51:15.893Z,98938.69
2022-08-30T06:52:21.333Z,98935.84
2022-08-30T06:53:27.486Z,98925.81
2022-08-30T06:54:32.107Z,98933.41
2022-08-30T06:55:35.346Z,98937.97
2022-08-30T06:56:40.207Z,98940.84
2022-08-30T06:57:46.175Z,98931.84
2022-08-30T06:58:51.171Z,98940.22
2022-08-30T06:59:57.465Z,98937.97
2022-08-30T07:01:00.638Z,98935.50
2022-08-30T07:02:05.306Z,98935.31
2022-08-30T07:03:08.937Z,98943.28
2022-08-30T07:04:13.287Z,98942.84
2022-08-30T07:05:19.077Z,98947.38
2022-08-30T07:06:24.605Z,98953.09
2022-08-30T07:07:27.906Z,98945.03
2022-08-30T07:08:35.456Z,98948.09
2022-08-30T07:09:43.483Z,98952.56
2022-08-30T07:10:48.503Z,98951.31
2022-08-30T07:11:55.779Z,98949.69
2022-08-30T07:12:59.179Z,98951.72
2022-08-30T07:14:03.907Z,98943.91
2022-08-30T07:15:08.336Z,98950.06
2022-08-30T07:16:13.678Z,98949.44
2022-08-30T07:17:35.711Z,98942.81
2022-08-30T07:18:50.876Z,98942.50
2022-08-30T07:19:55.723Z,98951.84
2022-08-30T07:20:59.155Z,98946.06
2022-08-30T07:22:03.660Z,98953.41
2022-08-30T07:23:07.066Z,98947.59
2022-08-30T07:24:13.856Z,98944.69
2022-08-30T07:25:18.949Z,98945.44
2022-08-30T07:26:25.910Z,98942.72
2022-08-30T07:27:30.277Z,98944.75
2022-08-30T07:28:34.462Z,98938.66
2022-08-30T07:29:38.836Z,98945.75
2022-08-30T07:30:42.343Z,98944.81
2022-08-30T07:31:46.865Z,98942.63
2022-08-30T07:32:50.062Z,98942.19
2022-08-30T07:33:54.407Z,98942.03
2022-08-30T07:34:57.856Z,98943.66
2022-08-30T07:36:02.251Z,98940.09
2022-08-30T07:37:05.694Z,98944.25
2022-08-30T07:38:14.535Z,98940.56
2022-08-30T07:39:20.574Z,98938.38
2022-08-30T07:40:23.998Z,98936.22
2022-08-30T07:41:30.628Z,98943.28
2022-08-30T07:42:33.902Z,98940.25
2022-08-30T07:43:38.617Z,98936.00
2022-08-30T07:44:42.845Z,98938.06
2022-08-30T07:45:46.055Z,98943.41
2022-08-30T07:46:50.592Z,98937.09
2022-08-30T07:47:53.707Z,98939.78
2022-08-30T07:48:57.814Z,98936.91
2022-08-30T07:50:01.467Z,98940.91
2022-08-30T07:51:06.505Z,98937.84
2022-08-30T07:52:09.715Z,98942.09
2022-08-30T07:53:14.127Z,98940.53
2022-08-30T07:54:18.767Z,98939.09
2022-08-30T07:55:23.148Z,98934.09
2022-08-30T07:56:26.721Z,98934.06
2022-08-30T07:57:33.779Z,98928.84
2022-08-30T07:58:38.516Z,98932.72
2022-08-30T07:59:42.779Z,98934.84
2022-08-30T08:00:46.007Z,98932.38
2022-08-30T08:01:50.239Z,98937.06
2022-08-30T08:02:55.494Z,98938.00
2022-08-30T08:03:59.742Z,98945.69
2022-08-30T08:05:02.973Z,98943.81
2022-08-30T08:06:08.323Z,98944.84
2022-08-30T08:07:11.788Z,98948.25
2022-08-30T08:08:16.265Z,98944.81
2022-08-30T08:09:20.867Z,98944.78
2022-08-30T08:10:25.035Z,98949.78
2022-08-30T08:11:33.464Z,98947.94
2022-08-30T08:12:36.965Z,98949.91
2022-08-30T08:13:53.779Z,98953.94
2022-08-30T08:14:58.655Z,98955.06
2022-08-30T08:16:01.859Z,98961.81
2022-08-30T08:17:06.347Z,98956.47
2022-08-30T08:18:10.737Z,98957.56
2022-08-30T08:19:14.968Z,98956.16
2022-08-30T08:20:18.183Z,98960.28
2022-08-30T08:21:22.624Z,98956.41
2022-08-30T08:22:25.987Z,98950.47
2022-08-30T08:23:30.819Z,98954.63
2022-08-30T08:24:36.710Z,98961.66
2022-08-30T08:25:42.135Z,98957.94
2022-08-30T08:26:46.308Z,98955.72
2022-08-30T08:27:51.015Z,98951.56
2022-08-30T08:28:55.268Z,98953.72
2022-08-30T08:29:58.379Z,98950.00
2022-08-30T08:31:02.662Z,98953.09
2022-08-30T08:32:06.039Z,98950.84
2022-08-30T08:33:10.864Z,98961.63
2022-08-30T08:34:15.421Z,98960.50
2022-08-30T08:35:18.747Z,98958.28
2022-08-30T08:36:22.787Z,98960.41
2022-08-30T08:37:28.158Z,98965.84
2022-08-30T08:38:31.300Z,98965.00
2022-08-30T08:39:37.321Z,98960.94
2022-08-30T08:40:47.438Z,98956.06
2022-08-30T08:41:56.197Z,98959.56
2022-08-30T08:43:03.904Z,98953.03
2022-08-30T08:44:12.528Z,98962.38
2022-08-30T08:45:21.652Z,98963.97
2022-08-30T08:46:32.856Z,98965.28
2022-08-30T08:47:39.427Z,98967.25
2022-08-30T08:48:59.909Z,98957.63
2022-08-30T08:50:08.797Z,98964.63
2022-08-30T08:51:32.029Z,98966.53
2022-08-30T08:52:58.636Z,98969.41
2022-08-30T08:54:06.629Z,98965.31
2022-08-30T08:55:15.590Z,98960.47
2022-08-30T08:56:19.962Z,98956.78
2022-08-30T08:57:24.873Z,98958.69
2022-08-30T08:58:30.707Z,98964.53
2022-08-30T08:59:35.333Z,98960.53
2022-08-30T09:00:38.902Z,98961.28
2022-08-30T09:01:43.202Z,98958.72
2022-08-30T09:02:50.628Z,98963.59
2022-08-30T09:03:57.886Z,98962.34
2022-08-30T09:05:04.243Z,98954.88
2022-08-30T09:06:28.068Z,98961.06
2022-08-30T09:07:34.842Z,98957.63
2022-08-30T09:08:37.996Z,98956.16
2022-08-30T09:09:42.788Z,98953.38
2022-08-30T09:10:52.534Z,98955.03
2022-08-30T09:11:56.605Z,98962.88
2022-08-30T09:13:00.832Z,98953.06
2022-08-30T09:14:11.954Z,98956.06
2022-08-30T09:15:20.206Z,98958.50
2022-08-30T09:16:46.966Z,98964.03
2022-08-30T09:17:54.837Z,98970.06
2022-08-30T09:18:57.815Z,98963.66
2022-08-30T09:20:02.781Z,98963.72
2022-08-30T09:21:07.246Z,98968.13
2022-08-30T09:22:22.865Z,98957.94
2022-08-30T09:23:32.657Z,98963.53
2022-08-30T09:24:40.705Z,98960.94
2022-08-30T09:25:53.577Z,98959.53
2022-08-30T09:26:56.696Z,98960.19
2022-08-30T09:28:11.655Z,98952.88
2022-08-30T09:29:17.797Z,98965.19
2022-08-30T09:30:25.913Z,98958.97
2022-08-30T09:31:32.721Z,98958.09
2022-08-30T09:32:40.448Z,98962.50
2022-08-30T09:33:55.757Z,98959.41
2022-08-30T09:35:00.468Z,98959.81
2022-08-30T09:36:14.536Z,98949.53
2022-08-30T09:37:27.119Z,98957.53
2022-08-30T09:38:34.418Z,98963.53
2022-08-30T09:39:38.313Z,98957.22
2022-08-30T09:40:44.070Z,98948.50
2022-08-30T09:41:50.597Z,98947.88
2022-08-30T09:43:02.829Z,98943.69
2022-08-30T09:44:12.706Z,98953.25
2022-08-30T09:45:20.615Z,98944.88
2022-08-30T09:46:26.176Z,98947.94
2022-08-30T09:47:31.904Z,98949.25
2022-08-30T09:48:38.335Z,98951.44
2022-08-30T09:49:44.896Z,98959.38
2022-08-30T09:50:50.257Z,98952.88
2022-08-30T09:52:12.515Z,98958.38
2022-08-30T09:53:23.472Z,98955.22
2022-08-30T09:54:34.942Z,98955.56
2022-08-30T09:55:51.826Z,98948.47
2022-08-30T09:57:11.626Z,98955.22
2022-08-30T09:58:31.349Z,98955.06
2022-08-30T09:59:40.625Z,98962.91
2022-08-30T10:00:49.353Z,98956.84
2022-08-30T10:01:57.212Z,98960.34
2022-08-30T10:03:35.318Z,98955.06
2022-08-30T10:04:44.855Z,98951.09
2022-08-30T10:05:57.974Z,98955.47
2022-08-30T10:07:06.538Z,98954.69
2022-08-30T10:08:14.744Z,98943.22
2022-08-30T10:09:24.927Z,98940.41
2022-08-30T10:10:32.301Z,98937.72
2022-08-30T10:11:44.039Z,98937.22
2022-08-30T10:12:56.734Z,98942.84
2022-08-30T10:14:36.847Z,98937.72
2022-08-30T10:15:43.265Z,98938.50
2022-08-30T10:16:51.715Z,98934.94
2022-08-30T10:18:02.974Z,98940.56
2022-08-30T10:19:15.624Z,98933.94
2022-08-30T10:20:23.606Z,98934.34
2022-08-30T10:21:34.006Z,98926.78
2022-08-30T10:22:41.850Z,98931.28
2022-08-30T10:23:47.983Z,98933.59
2022-08-30T10:24:57.053Z,98924.94
2022-08-30T10:26:12.530Z,98926.56
2022-08-30T10:27:20.147Z,98930.00
2022-08-30T10:28:31.506Z,98919.16
2022-08-30T10:29:42.295Z,98923.19
2022-08-30T10:30:51.776Z,98914.31
2022-08-30T10:31:59.016Z,98920.28
2022-08-30T10:33:07.773Z,98913.63
2022-08-30T10:34:15.059Z,98930.50
2022-08-30T10:35:22.615Z,98927.41
2022-08-30T10:36:31.461Z,98928.84
2022-08-30T10:37:39.537Z,98925.69
2022-08-30T10:38:48.086Z,98927.94
2022-08-30T10:39:53.065Z,98927.38
2022-08-30T10:41:13.719Z,98930.50
2022-08-30T10:42:22.899Z,98931.59
2022-08-30T10:43:39.300Z,98930.00
2022-08-30T10:44:47.027Z,98925.09
2022-08-30T10:45:51.726Z,98927.78
2022-08-30T10:47:08.517Z,98919.94
2022-08-30T10:48:19.308Z,98919.13
2022-08-30T10:49:27.105Z,98923.94
2022-08-30T10:50:38.452Z,98922.63
2022-08-30T10:51:49.706Z,98916.56
2022-08-30T10:52:58.547Z,98922.03
2022-08-30T10:54:11.396Z,98918.28
2022-08-30T10:55:22.503Z,98912.16
2022-08-30T10:56:29.658Z,98907.06
2022-08-30T10:57:33.788Z,98908.31
2022-08-30T10:58:40.273Z,98913.75
2022-08-30T10:59:48.365Z,98911.50
2022-08-30T11:01:04.318Z,98904.63
2022-08-30T11:02:24.949Z,98903.31
2022-08-30T11:03:50.467Z,98899.72
2022-08-30T11:05:13.847Z,98904.09
2022-08-30T11:06:23.928Z,98904.16
2022-08-30T11:07:36.016Z,98910.72
2022-08-30T11:09:16.820Z,98903.34
2022-08-30T11:10:28.421Z,98902.97
2022-08-30T11:11:44.386Z,98898.97
2022-08-30T11:12:55.763Z,98904.66
2022-08-30T11:14:05.421Z,98905.31
2022-08-30T11:15:19.901Z,98905.94
2022-08-30T11:16:36.616Z,98896.94
2022-08-30T11:17:46.047Z,98903.25
2022-08-30T11:18:52.083Z,98898.78
2022-08-30T11:19:57.495Z,98895.59
2022-08-30T11:21:28.377Z,98891.72
2022-08-30T11:22:39.261Z,98892.19
2022-08-30T11:23:42.757Z,98892.28
2022-08-30T11:25:13.316Z,98897.75
2022-08-30T11:26:52.689Z,98893.94
2022-08-30T11:27:58.686Z,98890.22
2022-08-30T11:29:09.045Z,98899.13
2022-08-30T11:30:52.417Z,98895.94
2022-08-30T11:31:56.351Z,98894.66
2022-08-30T11:33:02.296Z,98900.13
2022-08-30T11:34:06.469Z,98886.06
2022-08-30T11:39:03.813Z,98883.97
2022-08-30T11:40:14.255Z,98896.66
2022-08-30T11:41:32.505Z,98882.22
2022-08-30T11:42:42.866Z,98883.84
2022-08-30T11:43:57.360Z,98879.25
2022-08-30T11:45:38.795Z,98886.72
2022-08-30T11:46:45.532Z,98873.59
2022-08-30T11:47:51.156Z,98881.13
2022-08-30T11:48:56.954Z,98878.50
2022-08-30T11:50:09.885Z,98883.47
2022-08-30T11:51:43.631Z,98874.84
2022-08-30T11:52:53.328Z,98876.63
2022-08-30T11:54:01.937Z,98880.75
2022-08-30T11:55:42.354Z,98876.25
2022-08-30T11:56:55.784Z,98876.91
2022-08-30T11:58:11.553Z,98873.13
2022-08-30T11:59:26.735Z,98880.69
2022-08-30T12:00:35.015Z,98873.13
2022-08-30T12:01:51.007Z,98871.22
2022-08-30T12:03:00.358Z,98871.47
2022-08-30T12:04:07.038Z,98870.44
2022-08-30T12:05:51.647Z,98868.53
2022-08-30T12:07:00.031Z,98862.25
2022-08-30T12:08:05.020Z,98863.81
2022-08-30T12:09:10.925Z,98869.16
2022-08-30T12:10:24.805Z,98871.00
2022-08-30T12:12:05.199Z,98865.34
2022-08-30T12:13:09.965Z,98859.63
2022-08-30T12:14:47.851Z,98870.72
2022-08-30T12:16:00.995Z,98860.44
2022-08-30T12:17:30.126Z,98859.31
2022-08-30T12:18:46.333Z,98854.16
2022-08-30T12:19:50.684Z,98854.97
2022-08-30T12:20:55.372Z,98855.00
2022-08-30T12:22:01.501Z,98857.72
2022-08-30T12:23:19.816Z,98851.81
2022-08-30T12:24:27.947Z,98853.50
2022-08-30T12:25:34.107Z,98854.13
2022-08-30T12:26:41.200Z,98856.91
2022-08-30T12:27:44.995Z,98862.25
2022-08-30T12:28:51.306Z,98856.50
2022-08-30T12:29:56.774Z,98855.00
2022-08-30T12:31:10.030Z,98848.91
2022-08-30T12:32:19.465Z,98853.50
2022-08-30T12:33:29.338Z,98844.88
2022-08-30T12:34:39.166Z,98848.19
2022-08-30T12:35:43.626Z,98839.13
2022-08-30T12:36:53.946Z,98841.81
2022-08-30T12:38:00.267Z,98839.91
2022-08-30T12:39:13.723Z,98840.13
2022-08-30T12:40:21.170Z,98841.78
2022-08-30T12:41:27.397Z,98848.13
2022-08-30T12:42:33.379Z,98836.25
2022-08-30T12:43:41.598Z,98841.38
2022-08-30T12:44:45.539Z,98840.88
2022-08-30T12:45:51.407Z,98843.31
2022-08-30T12:46:59.783Z,98844.41
2022-08-30T12:48:06.096Z,98842.56
2022-08-30T12:49:11.617Z,98840.94
2022-08-30T12:50:20.083Z,98830.09
2022-08-30T12:51:38.309Z,98826.06
2022-08-30T12:52:45.537Z,98830.03
2022-08-30T12:53:51.340Z,98825.34
2022-08-30T12:54:56.821Z,98828.22
2022-08-30T12:56:02.581Z,98819.72
2022-08-30T12:57:25.658Z,98828.66
2022-08-30T12:58:37.935Z,98814.09
2022-08-30T12:59:59.206Z,98831.72
2022-08-30T13:01:18.552Z,98821.78
2022-08-30T13:02:23.558Z,98818.00
2022-08-30T13:03:34.268Z,98821.78
2022-08-30T13:04:37.599Z,98820.44
2022-08-30T13:05:52.818Z,98819.88
2022-08-30T13:06:58.687Z,98813.94
2022-08-30T13:08:27.777Z,98813.88
2022-08-30T13:09:34.177Z,98813.34
2022-08-30T13:10:38.925Z,98810.06
2022-08-30T13:11:49.014Z,98810.00
2022-08-30T13:13:02.125Z,98808.50
2022-08-30T13:14:36.846Z,98814.31
2022-08-30T13:15:42.821Z,98811.34
2022-08-30T13:16:47.182Z,98805.09
2022-08-30T13:18:13.386Z,98804.91
2022-08-30T13:19:32.826Z,98805.63
2022-08-30T13:20:35.975Z,98800.78
2022-08-30T13:21:49.221Z,98795.41
2022-08-30T13:23:06.175Z,98806.34
2022-08-30T13:24:10.275Z,98796.94
2022-08-30T13:25:13.382Z,98800.06
2022-08-30T13:26:23.198Z,98798.78
2022-08-30T13:27:27.478Z,98810.66
2022-08-30T13:28:31.582Z,98798.75
2022-08-30T13:29:35.877Z,98803.38
2022-08-30T13:30:39.967Z,98798.75
2022-08-30T13:31:44.145Z,98793.38
2022-08-30T13:32:47.235Z,98801.59
2022-08-30T13:33:53.345Z,98800.28
2022-08-30T13:34:57.385Z,98799.00
2022-08-30T13:36:00.836Z,98799.28
2022-08-30T13:37:44.242Z,98800.91
2022-08-30T13:38:32.024Z,98803.34
2022-08-30T13:39:35.243Z,98799.56
2022-08-30T13:40:41.369Z,98802.56
2022-08-30T13:41:46.073Z,98806.00
2022-08-30T13:42:50.513Z,98800.47
2022-08-30T13:44:11.432Z,98800.34
2022-08-30T13:46:53.345Z,98799.44
2022-08-30T13:47:58.667Z,98800.03
2022-08-30T13:49:04.987Z,98799.63
2022-08-30T13:50:10.045Z,98791.41
2022-08-30T13:51:13.416Z,98798.00
2022-08-30T13:52:22.915Z,98792.53
2022-08-30T13:54:51.274Z,98791.75
2022-08-30T13:55:54.551Z,98798.25
2022-08-30T13:56:58.921Z,98789.84
2022-08-30T13:58:03.300Z,98793.44
2022-08-30T13:59:06.656Z,98792.63
2022-08-30T14:00:18.052Z,98789.81
2022-08-30T14:01:21.802Z,98789.25
2022-08-30T14:02:26.179Z,98786.00
2022-08-30T14:03:31.454Z,98786.88
2022-08-30T14:04:35.048Z,98784.75
2022-08-30T14:05:50.110Z,98784.16
2022-08-30T14:09:47.767Z,98777.13
2022-08-30T14:10:51.946Z,98770.34
2022-08-30T14:11:54.996Z,98769.13
2022-08-30T14:13:07.926Z,98771.22
2022-08-30T14:14:22.327Z,98776.31
2022-08-30T14:15:35.378Z,98775.78
2022-08-30T14:16:45.111Z,98775.63
2022-08-30T14:17:48.450Z,98776.25
2022-08-30T14:18:52.595Z,98769.25
2022-08-30T14:19:56.862Z,98770.59
2022-08-30T14:21:00.535Z,98768.19
2022-08-30T14:22:04.746Z,98760.34
2022-08-30T14:23:10.143Z,98767.06
2022-08-30T14:24:16.085Z,98767.63
2022-08-30T14:25:23.253Z,98756.97
2022-08-30T14:26:32.808Z,98758.53
2022-08-30T14:27:37.705Z,98754.88
2022-08-30T14:28:42.224Z,98765.59
2022-08-30T14:29:47.277Z,98759.31
2022-08-30T14:30:50.544Z,98759.03
2022-08-30T14:31:54.967Z,98758.94
2022-08-30T14:32:58.094Z,98760.03
2022-08-30T14:34:04.245Z,98766.66
2022-08-30T14:35:10.096Z,98764.00
2022-08-30T14:36:15.852Z,98763.22
2022-08-30T14:37:20.306Z,98758.34
2022-08-30T14:38:23.312Z,98753.59
2022-08-30T14:39:29.089Z,98750.97
2022-08-30T14:40:32.257Z,98749.19
2022-08-30T14:41:40.116Z,98749.53
2022-08-30T14:42:47.377Z,98758.47